echo '';

Nearby METAR Reports

 

ENRY - Rygge (nor-Afb), Norway
Distance from station: NV 23km
Oppdatert: 20/07/2018 04:20
Few Clouds
Few Clouds
 Vind fra ØSØ
Vind: ØSØ 6 km/h
Temperatur: 14°C
Duggpunkt: 13°C
Fuktighet: 94%
Barometer: 1013 hPa
Clouds: Few Clouds
Visibility: 7 miles
Cloud details: Few Clouds 366 m
2018/07/20 02:20 ENRY 200220Z AUTO 11003KT 4400NDV FEW012/// 14/13 Q1013
ENTO - Torp (civ/Nor-Af, Norway
Distance from station: V 47km
Oppdatert: 20/07/2018 04:20
Few Clouds
Few Clouds
 Vind fra N
Vind: N 4 km/h
Temperatur: 13°C
Duggpunkt: 13°C
Fuktighet: 100%
Barometer: 1012 hPa
Clouds: Few Clouds
Visibility: 8 km
Cloud details: Few Clouds 366 m
2018/07/20 02:20 ENTO 200220Z AUTO 35002KT 8000 FEW012/// 13/13 Q1012
 
ENSN - Skien/Geiterygge, Norway
Distance from station: V 87km
Oppdatert: 09/11/2015 09:50
NOT Current
Klart
Klart
 Vind fra SSV
Vind: SSV 19 km/h, Vindkast: 41 km/h
Temperatur: 7°C
Vindkjøling: 4°C
Duggpunkt: 3°C
Fuktighet: 76%
Barometer: 1000 hPa
Oversikt: Klart
Visibility: greater than 10 km
2015/11/09 08:50 ENSN 090850Z 20010G22KT 150V240 CAVOK 07/03 Q1000
ENGM - Oslo/Gardermoen, Norway
Distance from station: 0 107km
Oppdatert: 20/07/2018 04:20
Klart
Klart
 Vind fra SSV
Vind: SSV 7 km/h
Temperatur: 15°C
Duggpunkt: 11°C
Fuktighet: 77%
Barometer: 1012 hPa
Oversikt: Klart
Visibility: greater than 10 km
2018/07/20 02:20 ENGM 200220Z 20004KT CAVOK 15/11 Q1012
 
ENNO - Notodden, Norway
Distance from station: VNV 112km
Oppdatert: 16/07/2018 07:50
NOT Current
Few Clouds
Few Clouds
 Vind fra varies
Vind: varies 4 km/h
Temperatur: 16°C
Duggpunkt: 13°C
Fuktighet: 83%
Barometer: 1016 hPa
Clouds: Few Clouds
Visibility: 10 km
Cloud details: Few Clouds 335 m
2018/07/16 05:50 ENNO 160550Z VRB02KT 9999 FEW011 16/13 Q1016
ESGT - Trollhattan (pvt, Sweden
Distance from station: SØ 125km
Oppdatert: 18/07/2018 17:20
NOT Current
Klart
Klart
 Vind fra ØNØ
Vind: ØNØ 6 km/h
Temperatur: 25°C
Duggpunkt: 16°C
Fuktighet: 57%
Barometer: 1014 hPa
Oversikt: Klart
Visibility: greater than 10 km
2018/07/18 15:20 ESGT 181520Z 06003KT 020V090 CAVOK 25/16 Q1014
 
ESIB - Satenas (swe-Afb, Sweden
Distance from station: SØ 129km
Oppdatert: 20/07/2018 04:20
Klart
Klart
 Vind fra SSV
Vind: SSV 7 km/h
Temperatur: 13°C
Duggpunkt: 13°C
Fuktighet: 100%
Barometer: 1013 hPa
Clouds: Klart
Visibility: 10 km
2018/07/20 02:20 ESIB 200220Z AUTO 20004KT 9999 NCD 13/13 Q1013
ESOK - Karlstad North, Sweden
Distance from station: ØNØ 129km
Oppdatert: 20/07/2018 04:20
Klart
Klart
 Vind fra V
Vind: V 7 km/h
Temperatur: 14°C
Duggpunkt: 11°C
Fuktighet: 82%
Barometer: 1012 hPa
Clouds: Klart
Visibility: 10 km
2018/07/20 02:20 ESOK 200220Z AUTO 27004KT 9999 NCD 14/11 Q1012
 
ESGP - Goteborg/Save (a, Sweden
Distance from station: SSØ 169km
Oppdatert: 02/01/2017 11:20
NOT Current
Klart
Klart
 Vind fra calm
Vind: Stille
Temperatur: -2°C
Duggpunkt: -4°C
Fuktighet: 86%
Barometer: 1012 hPa
Clouds: Klart
Visibility: 10 km
2017/01/02 10:20 ESGP 021020Z AUTO 00000KT 9999 NCD M02/M04 Q1012
ESGG - Goteborg/Landvet, Sweden
Distance from station: SSØ 188km
Oppdatert: 20/07/2018 04:20
Klart
Klart
 Vind fra SV
Vind: SV 6 km/h
Temperatur: 12°C
Duggpunkt: 12°C
Fuktighet: 100%
Barometer: 1014 hPa
Oversikt: Klart
Visibility: greater than 10 km
2018/07/20 02:20 ESGG 200220Z 22003KT CAVOK 12/12 Q1014
 
EKSN - Sindal Airport, Denmark
Distance from station: SSV 199km
Oppdatert: 19/07/2018 13:50
NOT Current
Klart
Klart
 Vind fra VSV
Vind: VSV 22 km/h
Temperatur: 21°C
Duggpunkt: 13°C
Fuktighet: 60%
Barometer: 1016 hPa
Oversikt: Klart
Visibility: greater than 10 km
2018/07/19 11:50 EKSN 191150Z 25012KT CAVOK 21/13 Q1016
ENCN - Kristiansand/Kje, Norway
Distance from station: VSV 209km
Oppdatert: 20/07/2018 04:20
Mist, Delvis skyet
Mist, Delvis skyet
 Vind fra calm
Vind: Stille
Temperatur: 14°C
Duggpunkt: 14°C
Fuktighet: 100%
Barometer: 1012 hPa
Oversikt: Mist
Clouds: Delvis skyet
Visibility: 7 km
Cloud details: Delvis skyet 6401 m
2018/07/20 02:20 ENCN 200220Z AUTO 00000KT 7000 BR SCT210/// 14/14 Q1012
 
ENFG - Fagernes/Leirin, Norway
Distance from station: NNV 220km
Oppdatert: 22/04/2018 10:50
NOT Current
Klart
Klart
 Vind fra S
Vind: S 13 km/h
Temperatur: 6°C
Vindkjøling: 3°C
Duggpunkt: -3°C
Fuktighet: 53%
Barometer: 1014 hPa
Oversikt: Klart
Visibility: greater than 10 km
2018/04/22 08:50 ENFG 220850Z 19007KT CAVOK 06/M03 Q1014
ESOE - Orebro (private), Sweden
Distance from station: Ø 225km
Oppdatert: 20/07/2018 04:20
Hovedsaklig skyet
Hovedsaklig skyet
 Vind fra SV
Vind: SV 6 km/h
Temperatur: 19°C
Duggpunkt: 15°C
Fuktighet: 78%
Barometer: 1012 hPa
Clouds: Hovedsaklig skyet
Visibility: 10 km
Cloud details: Hovedsaklig skyet 2042 m
2018/07/20 02:20 ESOE 200220Z AUTO 22003KT 9999 BKN067/// 19/15 Q1012
 
ESGJ - Jonkoping Airpor, Sweden
Distance from station: SØ 238km
Oppdatert: 20/07/2018 04:20
Klart
Klart
 Vind fra V
Vind: V 6 km/h
Temperatur: 14°C
Duggpunkt: 12°C
Fuktighet: 88%
Barometer: 1013 hPa
Clouds: Klart
Visibility: 10 km
2018/07/20 02:20 ESGJ 200220Z AUTO 27003KT 9999 NCD 14/12 Q1013
EKYT - Alborg, Denmark
Distance from station: SSV 248km
Oppdatert: 20/07/2018 04:20
Klart
Klart
 Vind fra VSV
Vind: VSV 24 km/h
Temperatur: 15°C
Duggpunkt: 12°C
Fuktighet: 82%
Barometer: 1013 hPa
Clouds: Klart
Visibility: 16 miles
2018/07/20 02:20 EKYT 200220Z AUTO 25013KT 9999NDV NCD 15/12 Q1013
 
ESCF - Linkoping/Malmen, Sweden
Distance from station: ØSØ 272km
Oppdatert: 20/07/2018 04:20
Lett regn, Overskyet
Lett regn, Overskyet
 Vind fra V
Vind: V 6 km/h
Temperatur: 18°C
Duggpunkt: 16°C
Fuktighet: 88%
Barometer: 1012 hPa
Oversikt: Lett regn
Clouds: Overskyet
Visibility: 10 km
Cloud details: Overskyet 2560 m
2018/07/20 02:20 ESCF 200220Z AUTO 26003KT 9999 -RA OVC084/// 18/16 Q1012
ESSD - Borlange (swe-Af, Sweden
Distance from station: ØNØ 279km
Oppdatert: 20/07/2018 04:20
Klart
Klart
 Vind fra VSV
Vind: VSV 4 km/h
Temperatur: 15°C
Duggpunkt: 15°C
Fuktighet: 100%
Barometer: 1012 hPa
Clouds: Klart
Visibility: 10 km
2018/07/20 02:20 ESSD 200220Z AUTO 25002KT 9999 NCD 15/15 Q1012
 
ESSL - Linkoping/Saab, Sweden
Distance from station: ØSØ 280km
Oppdatert: 20/07/2018 04:20
Lett regn, Overskyet
Lett regn, Overskyet
 Vind fra V
Vind: V 7 km/h
Temperatur: 19°C
Duggpunkt: 17°C
Fuktighet: 88%
Barometer: 1012 hPa
Oversikt: Lett regn
Clouds: Overskyet
Visibility: 10 km
Cloud details: Few Clouds 1554 m
Delvis skyet 2134 m
Overskyet 2865 m
2018/07/20 02:20 ESSL 200220Z AUTO 28004KT 9999 -RA FEW051/// SCT070/// OVC094/// 19/17 Q1012 RESHGS
ESMT - Halmstad (swe-Af, Sweden
Distance from station: SSØ 303km
Oppdatert: 20/07/2018 04:20
Klart
Klart
 Vind fra N
Vind: N 2 km/h
Temperatur: 15°C
Duggpunkt: 13°C
Fuktighet: 88%
Barometer: 1014 hPa
Clouds: Klart
Visibility: 10 km
2018/07/20 02:20 ESMT 200220Z AUTO 36001KT 9999 NCD 15/13 Q1014